Share

El Salvador, El Salvador

3:51 PM CST on April 24, 2014 (GMT -0600)
El Salvador International (MSLP) Elev 82 ft | 13.44 °N, 89.06 °W | Change Station

Current weather conditions updated 1 hour ago

Partly Cloudy
Partly Cloudy
90 °F
Feels Like 96 °F
N
14
Wind Variable Wind from SW
Sunrise 5:38 AM
Sunset 6:10 PM
Moon Waning Crescent

Today is forecast to be nearly the same temperature as yesterday.

Pressure 29.80 in
Visibility 6.2 miles
Clouds Few 3000 ft
Heat Index 96 °F
Dew Point 72 °F
Humidity 55%
Rainfall 0.00 in
Snow Depth Not available.
UV 6 out of 16
Pollen Not available.
Air Quality Not available.
Flu Activity Not available.
METAR MSLP 242050Z 23012KT 9999 FEW030 32/22 Q1009 A2981 HZ

More Conditions Fewer Conditions

Pressure 29.80 in
Visibility 6.2 miles
Clouds Few 3000 ft
Heat Index 96 °F
Dew Point 72 °F
Humidity 55%
Rainfall 0.00 in
Snow Depth Not available.
UV 6 out of 16
Pollen Not available.
Air Quality Not available.
Flu Activity Not available.
METAR MSLP 242050Z 23012KT 9999 FEW030 32/22 Q1009 A2981 HZ

More Conditions Fewer Conditions

10-Day Weather Forecast

Almanac

Astronomy

Apr. 24, 2014 Rise Set
Actual Time 5:38 AM CST 6:10 PM CST
Civil Twilight 5:16 AM CST 6:32 PM CST
Nautical Twilight 4:50 AM CST 6:58 PM CST
Astronomical Twilight 4:24 AM CST 7:24 PM CST
Moon 1:58 AM CST 2:11 PM CST
Length of Visible Light 13h 16m
Length of Day
12h 32m
Tomorrow will be 0m 40s longer.
Waning Crescent, 22% of the Moon is Illuminated
Today
Waning Crescent
Apr 29
New
May 6
First Quarter
May 14
Full
May 21
Last Quarter

Today's Extremes

Country Highs Country Lows

Community

  • Jone Runs Falls
    Jone Runs Falls
  • Sunset at Apalachicola Bay, Florida
    Sunset at Apalachicola Bay, Florida
  • Clouds mov'n in
    Clouds mov'n in
  • Stacked
    Stacked
  • clouds approaching Red Sox Nation
    clouds approaching Red Sox Nation

WunderPhotos

Upload Photos

1,704,721 photos uploaded!

Nearby

Snow Depth

Not available.

Coastal Water Temperatures

Place Temperature
No Stations Reporting

Earthquake Activity

City Distance Mag. Time & Date
No recent earthquake activity has been reported nearby.
Minimum magnitude displayed is 2.5.

Nearby Weather Stations

Station Location Temp. Heat Index Dew Point Humidity Wind Precip. Elev Updated Type
Escalon - Zona Rosa, San Salvador 80.0 °F 84 °F 71 °F 75% SW  at  4.0 mph 0.00 in / hr 2605 ft 3:43 PM CST Normal
Antiguo Cuscatlan 86.9 °F 104 °F 81 °F 83% West  at  2.2 mph 0.00 in / hr 2776 ft 3:51 PM CST Rapid Fire
Boulevard Santa Elena, La Libertad 78.8 °F 81 °F 66 °F 65% South  at  5.4 mph 0.00 in / hr 2825 ft 3:51 PM CST Rapid Fire

Show More Stations Show Fewer Stations

What do you think?

We're not finished. Please let us know what you like, what you don't like, and what you are still missing.